METAR Data
IDs: Format: Raw Decoded Include TAF

Data at: 0147 UTC 01 Mar 2021

KDUH 010135Z AUTO 27012G19KT 10SM SCT019 BKN031 OVC038 13/10 A2970 RMK AO2 T01310098